createdAt,value
2018-11-01T00:00:20.839Z,7.9
2018-11-01T00:01:22.070Z,7.9
2018-11-01T00:02:23.460Z,7.9
2018-11-01T00:03:24.860Z,7.9
2018-11-01T00:04:26.413Z,7.9
2018-11-01T00:05:27.781Z,7.9
2018-11-01T00:06:28.841Z,7.9
2018-11-01T00:07:30.381Z,7.9
2018-11-01T00:08:31.940Z,7.9
2018-11-01T00:09:33.187Z,7.9
2018-11-01T00:10:34.599Z,7.9
2018-11-01T00:11:35.826Z,7.9
2018-11-01T00:12:36.878Z,7.9
2018-11-01T00:13:38.074Z,7.9
2018-11-01T00:14:39.468Z,7.9
2018-11-01T00:15:41.020Z,7.9
2018-11-01T00:16:42.088Z,7.9
2018-11-01T00:17:43.483Z,7.9
2018-11-01T00:18:44.863Z,7.9
2018-11-01T00:19:46.421Z,7.9
2018-11-01T00:20:47.978Z,7.9
2018-11-01T00:21:49.185Z,7.2
2018-11-01T00:22:50.754Z,7.4
2018-11-01T00:23:52.126Z,7.5
2018-11-01T00:24:53.334Z,7.6
2018-11-01T00:25:54.732Z,7.7
2018-11-01T00:26:56.111Z,7.8
2018-11-01T00:27:57.668Z,7.9
2018-11-01T00:28:58.888Z,7.9
2018-11-01T00:30:00.112Z,7.9
2018-11-01T00:31:01.322Z,7.9
2018-11-01T00:32:02.909Z,7.9
2018-11-01T00:33:04.588Z,7.9
2018-11-01T00:34:05.990Z,7.9
2018-11-01T00:35:07.210Z,7.9
2018-11-01T00:36:08.738Z,7.9
2018-11-01T00:37:09.952Z,7.9
2018-11-01T00:38:11.340Z,7.9
2018-11-01T00:39:12.590Z,7.9
2018-11-01T00:40:14.133Z,7.9
2018-11-01T00:41:15.363Z,7.9
2018-11-01T00:42:16.728Z,7.9
2018-11-01T00:43:17.942Z,7.9
2018-11-01T00:44:18.996Z,7.9
2018-11-01T00:45:20.558Z,7.9
2018-11-01T00:46:21.932Z,7.9
2018-11-01T00:47:23.482Z,7.8
2018-11-01T00:48:24.690Z,7.8
2018-11-01T00:49:26.069Z,7.8
2018-11-01T00:50:27.614Z,7.8
2018-11-01T00:51:28.673Z,7.8
2018-11-01T00:52:29.888Z,7.8
2018-11-01T00:53:31.094Z,7.8
2018-11-01T00:54:32.295Z,7.8
2018-11-01T00:55:33.682Z,7.8
2018-11-01T00:56:35.080Z,7.8
2018-11-01T00:57:36.457Z,7.8
2018-11-01T00:58:37.999Z,7.8
2018-11-01T00:59:39.541Z,7.8
2018-11-01T01:00:40.765Z,7.7
2018-11-01T01:01:42.188Z,7.7
2018-11-01T01:02:43.837Z,7.7
2018-11-01T01:03:44.884Z,7.7
2018-11-01T01:04:46.282Z,7.7
2018-11-01T01:05:47.846Z,7.7
2018-11-01T01:06:49.252Z,7.6
2018-11-01T01:07:50.257Z,7.6
2018-11-01T01:08:51.457Z,7.6
2018-11-01T01:09:52.841Z,7.7
2018-11-01T01:10:54.070Z,7.6
2018-11-01T01:11:55.109Z,7.6
2018-11-01T01:12:56.342Z,7.6
2018-11-01T01:13:57.881Z,7.6
2018-11-01T01:14:59.408Z,7.6
2018-11-01T01:16:00.776Z,7.5
2018-11-01T01:17:02.328Z,7.5
2018-11-01T01:18:03.873Z,7.5
2018-11-01T01:19:06.133Z,7.5
2018-11-01T01:20:07.538Z,7.4
2018-11-01T01:21:08.752Z,7.4
2018-11-01T01:22:09.978Z,7.4
2018-11-01T01:23:11.199Z,7.4
2018-11-01T01:24:12.406Z,7.4
2018-11-01T01:25:13.980Z,7.4
2018-11-01T01:26:15.381Z,7.4
2018-11-01T01:27:16.940Z,7.4
2018-11-01T01:28:18.152Z,7.4
2018-11-01T01:29:19.372Z,7.3
2018-11-01T01:30:20.768Z,7.3
2018-11-01T01:31:22.317Z,7.3
2018-11-01T01:32:23.697Z,7.3
2018-11-01T01:33:24.738Z,7.3
2018-11-01T01:34:26.171Z,7.3
2018-11-01T01:35:27.582Z,7.3
2018-11-01T01:36:28.978Z,7.3
2018-11-01T01:37:30.542Z,7.2
2018-11-01T01:38:31.942Z,7.2
2018-11-01T01:39:33.322Z,7.2
2018-11-01T01:40:34.856Z,7.2
2018-11-01T01:41:36.228Z,7.2
2018-11-01T01:42:37.282Z,7.2
2018-11-01T01:43:38.649Z,7.2
2018-11-01T01:44:39.702Z,7.2
2018-11-01T01:45:40.917Z,7.2
2018-11-01T01:46:42.124Z,7.2
2018-11-01T01:47:43.509Z,7.2
2018-11-01T01:48:44.388Z,7.2
2018-11-01T01:49:45.766Z,7.2
2018-11-01T01:50:47.858Z,7.2
2018-11-01T01:51:49.317Z,7.2
2018-11-01T01:52:50.857Z,7.2
2018-11-01T01:53:52.405Z,7.3
2018-11-01T01:54:53.778Z,7.3
2018-11-01T01:55:54.850Z,7.3
2018-11-01T01:56:56.057Z,7.3
2018-11-01T01:57:57.096Z,7.3
2018-11-01T01:58:58.149Z,7.3
2018-11-01T01:59:59.690Z,7.3
2018-11-01T02:01:01.240Z,7.2
2018-11-01T02:02:02.289Z,7.3
2018-11-01T02:03:03.508Z,7.3
2018-11-01T02:04:05.047Z,7.2
2018-11-01T02:05:06.483Z,7.2
2018-11-01T02:06:08.039Z,7.2
2018-11-01T02:07:09.402Z,7.2
2018-11-01T02:08:10.794Z,7.2
2018-11-01T02:09:12.181Z,7.2
2018-11-01T02:10:13.729Z,7.2
2018-11-01T02:11:15.296Z,7.2
2018-11-01T02:12:16.524Z,7.2
2018-11-01T02:13:18.064Z,7.2
2018-11-01T02:14:19.276Z,7.2
2018-11-01T02:15:20.809Z,7.2
2018-11-01T02:16:22.009Z,7.2
2018-11-01T02:17:23.411Z,7.2
2018-11-01T02:18:24.790Z,7.2
2018-11-01T02:19:26.009Z,7.2
2018-11-01T02:20:27.209Z,7.2
2018-11-01T02:21:28.748Z,7.2
2018-11-01T02:22:30.132Z,7.2
2018-11-01T02:23:31.329Z,7.1
2018-11-01T02:24:32.877Z,7.2
2018-11-01T02:25:34.425Z,7.1
2018-11-01T02:26:35.466Z,7.1
2018-11-01T02:27:36.840Z,7.1
2018-11-01T02:28:38.378Z,7.1
2018-11-01T02:29:39.764Z,7.1
2018-11-01T02:30:41.131Z,7.1
2018-11-01T02:31:42.729Z,7.1
2018-11-01T02:32:44.293Z,7.1
2018-11-01T02:33:45.678Z,7.1
2018-11-01T02:34:47.056Z,7.1
2018-11-01T02:35:48.630Z,7.1
2018-11-01T02:36:49.703Z,7.1
2018-11-01T02:37:51.522Z,7.1
2018-11-01T02:38:53.907Z,7.1
2018-11-01T02:39:55.525Z,7.1
2018-11-01T02:40:57.078Z,7.1
2018-11-01T02:41:58.626Z,7.1
2018-11-01T02:43:00.167Z,7.1
2018-11-01T02:44:01.718Z,7.2
2018-11-01T02:45:03.097Z,7.2
2018-11-01T02:46:04.461Z,7.2
2018-11-01T02:47:05.836Z,7.2
2018-11-01T02:48:07.385Z,7.2
2018-11-01T02:49:08.961Z,7.2
2018-11-01T02:50:10.558Z,7.2
2018-11-01T02:51:11.769Z,7.2
2018-11-01T02:52:13.155Z,7.2
2018-11-01T02:53:14.546Z,7.2
2018-11-01T02:54:15.947Z,7.2
2018-11-01T02:55:17.503Z,7.2
2018-11-01T02:56:18.876Z,7.2
2018-11-01T02:57:20.371Z,7.2
2018-11-01T02:58:21.738Z,7.2
2018-11-01T02:59:23.108Z,7.2
2018-11-01T03:00:24.670Z,7.2
2018-11-01T03:01:26.077Z,7.2
2018-11-01T03:02:27.317Z,7.2
2018-11-01T03:03:28.696Z,7.2
2018-11-01T03:04:29.906Z,7.2
2018-11-01T03:05:31.112Z,7.2
2018-11-01T03:06:32.488Z,7.3
2018-11-01T03:07:33.707Z,7.3
2018-11-01T03:08:35.279Z,7.3
2018-11-01T03:09:36.655Z,7.3
2018-11-01T03:10:38.041Z,7.4
2018-11-01T03:11:39.578Z,7.4
2018-11-01T03:12:40.628Z,7.4
2018-11-01T03:13:42.022Z,7.4
2018-11-01T03:14:43.559Z,7.4
2018-11-01T03:15:45.113Z,7.5
2018-11-01T03:16:46.488Z,7.5
2018-11-01T03:17:47.874Z,7.5
2018-11-01T03:18:49.559Z,7.5
2018-11-01T03:19:50.793Z,7.6
2018-11-01T03:20:51.864Z,7.6
2018-11-01T03:21:53.411Z,7.7
2018-11-01T03:22:54.955Z,7.7
2018-11-01T03:23:56.324Z,7.7
2018-11-01T03:24:57.846Z,7.7
2018-11-01T03:25:58.876Z,7.7
2018-11-01T03:27:00.408Z,7.7
2018-11-01T03:28:01.778Z,7.7
2018-11-01T03:29:02.998Z,7.7
2018-11-01T03:30:04.395Z,7.7
2018-11-01T03:31:05.789Z,7.7
2018-11-01T03:32:07.191Z,7.7
2018-11-01T03:33:08.425Z,7.7
2018-11-01T03:34:09.701Z,7.8
2018-11-01T03:35:11.453Z,7.8
2018-11-01T03:36:12.842Z,7.7
2018-11-01T03:37:13.884Z,7.7
2018-11-01T03:38:16.576Z,7.7
2018-11-01T03:39:17.893Z,7.7
2018-11-01T03:40:19.450Z,7.7
2018-11-01T03:41:21.025Z,7.7
2018-11-01T03:42:22.561Z,7.7
2018-11-01T03:43:23.798Z,7.7
2018-11-01T03:44:25.202Z,7.7
2018-11-01T03:45:26.904Z,7.7
2018-11-01T03:46:28.288Z,7.7
2018-11-01T03:47:29.332Z,7.8
2018-11-01T03:48:30.723Z,7.7
2018-11-01T03:49:32.122Z,7.8
2018-11-01T03:50:33.666Z,7.7
2018-11-01T03:51:35.058Z,7.7
2018-11-01T03:52:36.445Z,7.7
2018-11-01T03:53:38.875Z,7.7
2018-11-01T03:54:40.821Z,7.7
2018-11-01T03:55:42.197Z,7.7
2018-11-01T03:56:43.418Z,7.7
2018-11-01T03:57:44.818Z,7.7
2018-11-01T03:58:46.566Z,7.7
2018-11-01T03:59:47.789Z,7.7
2018-11-01T04:00:49.156Z,7.7
2018-11-01T04:01:50.550Z,7.8
2018-11-01T04:02:51.777Z,7.8
2018-11-01T04:03:54.323Z,7.8
2018-11-01T04:04:55.928Z,7.8
2018-11-01T04:05:57.142Z,7.8
2018-11-01T04:06:58.517Z,7.8
2018-11-01T04:07:59.750Z,7.8
2018-11-01T04:09:16.011Z,7.8
2018-11-01T04:10:17.376Z,7.2
2018-11-01T04:11:18.741Z,7.2
2018-11-01T04:12:20.165Z,7.2
2018-11-01T04:13:21.748Z,7.2
2018-11-01T04:14:23.150Z,7.2
2018-11-01T04:15:24.943Z,7.2
2018-11-01T04:16:26.328Z,7.2
2018-11-01T04:17:27.917Z,7.2
2018-11-01T04:18:29.297Z,7.2
2018-11-01T04:19:30.520Z,7.1
2018-11-01T04:20:32.089Z,7.2
2018-11-01T04:21:33.302Z,7.1
2018-11-01T04:22:34.840Z,7.2
2018-11-01T04:23:36.045Z,7.2
2018-11-01T04:24:37.099Z,7.2
2018-11-01T04:25:38.781Z,7.2
2018-11-01T04:26:40.176Z,7.2
2018-11-01T04:27:41.736Z,7.2
2018-11-01T04:28:43.498Z,7.2
2018-11-01T04:29:45.058Z,7.2
2018-11-01T04:30:46.431Z,7.2
2018-11-01T04:31:47.962Z,7.2
2018-11-01T04:32:49.212Z,7.2
2018-11-01T04:33:51.366Z,7.2
2018-11-01T04:34:52.846Z,7.2
2018-11-01T04:35:54.219Z,7.2
2018-11-01T04:36:55.768Z,7.2
2018-11-01T04:37:57.144Z,7.3
2018-11-01T04:38:58.363Z,7.4
2018-11-01T04:39:59.773Z,7.4
2018-11-01T04:41:01.146Z,7.5
2018-11-01T04:42:02.550Z,7.6
2018-11-01T04:43:04.343Z,7.7
2018-11-01T04:44:06.153Z,7.8
2018-11-01T04:45:07.978Z,7.9
2018-11-01T04:46:09.357Z,7.9
2018-11-01T04:47:11.438Z,7.9
2018-11-01T04:48:12.825Z,7.9
2018-11-01T04:49:13.859Z,7.9
2018-11-01T04:50:15.405Z,7.9
2018-11-01T04:51:16.449Z,7.9
2018-11-01T04:52:17.999Z,7.9
2018-11-01T04:53:18.878Z,7.7
2018-11-01T04:54:20.425Z,7.8
2018-11-01T04:55:21.619Z,7.9
2018-11-01T04:56:22.668Z,7.9
2018-11-01T04:57:24.047Z,7.9
2018-11-01T04:58:24.928Z,7.9
2018-11-01T04:59:26.514Z,7.9
2018-11-01T05:00:27.719Z,7.9
2018-11-01T05:01:29.247Z,7.9
2018-11-01T05:02:30.799Z,7.9
2018-11-01T05:03:32.733Z,7.9
2018-11-01T05:04:33.883Z,7.9
2018-11-01T05:05:35.099Z,7.9
2018-11-01T05:06:36.767Z,7.9
2018-11-01T05:07:38.157Z,7.9
2018-11-01T05:08:39.382Z,7.9
2018-11-01T05:09:40.597Z,7.9
2018-11-01T05:10:41.974Z,7.9
2018-11-01T05:11:43.334Z,7.8
2018-11-01T05:12:45.301Z,7.8
2018-11-01T05:13:46.703Z,7.8
2018-11-01T05:14:48.107Z,7.8
2018-11-01T05:15:49.483Z,7.7
2018-11-01T05:16:50.855Z,7.7
2018-11-01T05:17:52.077Z,7.7
2018-11-01T05:18:53.625Z,7.6
2018-11-01T05:19:55.002Z,7.6
2018-11-01T05:20:56.388Z,7.6
2018-11-01T05:21:57.442Z,7.6
2018-11-01T05:22:58.842Z,7.6
2018-11-01T05:24:00.228Z,7.6
2018-11-01T05:25:01.421Z,7.6
2018-11-01T05:26:03.091Z,7.6
2018-11-01T05:27:04.796Z,7.6
2018-11-01T05:28:06.347Z,7.6
2018-11-01T05:29:07.893Z,7.6
2018-11-01T05:30:09.441Z,7.6
2018-11-01T05:31:10.841Z,7.5
2018-11-01T05:32:12.052Z,7.5
2018-11-01T05:33:13.441Z,7.5
2018-11-01T05:34:14.783Z,7.5
2018-11-01T05:35:16.194Z,7.5
2018-11-01T05:36:17.409Z,7.5
2018-11-01T05:37:18.789Z,7.5
2018-11-01T05:38:20.333Z,7.5
2018-11-01T05:39:21.902Z,7.5
2018-11-01T05:40:23.452Z,7.5
2018-11-01T05:41:24.993Z,7.5
2018-11-01T05:42:26.388Z,7.4
2018-11-01T05:43:27.930Z,7.4
2018-11-01T05:44:29.298Z,7.4
2018-11-01T05:45:30.841Z,7.4
2018-11-01T05:46:32.412Z,7.4
2018-11-01T05:47:33.773Z,7.3
2018-11-01T05:48:35.155Z,7.3
2018-11-01T05:49:36.699Z,7.2
2018-11-01T05:50:38.257Z,7.2
2018-11-01T05:51:39.676Z,7.2
2018-11-01T05:52:41.075Z,7.2
2018-11-01T05:53:42.606Z,7.2
2018-11-01T05:54:44.404Z,7.2
2018-11-01T05:55:45.790Z,7.2
2018-11-01T05:56:47.154Z,7.2
2018-11-01T05:57:48.681Z,7.2
2018-11-01T05:58:49.728Z,7.2
2018-11-01T05:59:51.254Z,7.2
2018-11-01T06:00:52.489Z,7.2
2018-11-01T06:01:54.041Z,7.2
2018-11-01T06:02:55.420Z,7.2
2018-11-01T06:03:56.807Z,7.2
2018-11-01T06:04:58.017Z,7.2
2018-11-01T06:05:59.628Z,7.2
2018-11-01T06:07:01.018Z,7.2
2018-11-01T06:08:02.413Z,7.1
2018-11-01T06:09:03.618Z,7.2
2018-11-01T06:10:05.001Z,7.2
2018-11-01T06:11:21.077Z,7.2
2018-11-01T06:12:23.427Z,7.2
2018-11-01T06:13:25.136Z,7.2
2018-11-01T06:14:26.527Z,7.2
2018-11-01T06:15:27.918Z,7.2
2018-11-01T06:16:29.294Z,7.2
2018-11-01T06:17:30.850Z,7.2
2018-11-01T06:18:32.228Z,7.2
2018-11-01T06:19:33.610Z,7.2
2018-11-01T06:20:35.264Z,7.2
2018-11-01T06:21:36.685Z,7.2
2018-11-01T06:22:38.219Z,7.2
2018-11-01T06:23:39.275Z,7.2
2018-11-01T06:24:40.814Z,7.2
2018-11-01T06:25:42.184Z,7.2
2018-11-01T06:26:43.735Z,7.3
2018-11-01T06:27:45.120Z,7.4
2018-11-01T06:28:46.664Z,7.4
2018-11-01T06:29:48.056Z,7.5
2018-11-01T06:30:49.592Z,7.6
2018-11-01T06:31:50.808Z,7.7
2018-11-01T06:32:52.058Z,7.7
2018-11-01T06:33:53.452Z,7.8
2018-11-01T06:34:55.010Z,7.9
2018-11-01T06:35:56.390Z,7.9
2018-11-01T06:36:57.943Z,7.9
2018-11-01T06:37:59.318Z,7.9
2018-11-01T06:39:00.878Z,7.9
2018-11-01T06:40:02.441Z,7.9
2018-11-01T06:41:03.990Z,7.9
2018-11-01T06:42:05.579Z,7.9
2018-11-01T06:43:07.378Z,7.9
2018-11-01T06:44:08.834Z,7.9
2018-11-01T06:45:09.970Z,7.9
2018-11-01T06:46:11.353Z,7.9
2018-11-01T06:47:12.623Z,7.9
2018-11-01T06:48:13.873Z,7.9
2018-11-01T06:49:15.285Z,7.9
2018-11-01T06:50:16.503Z,7.9
2018-11-01T06:51:17.900Z,7.9
2018-11-01T06:52:19.495Z,7.9
2018-11-01T06:53:20.885Z,7.9
2018-11-01T06:54:22.123Z,7.9
2018-11-01T06:55:24.174Z,7.8
2018-11-01T06:56:25.217Z,7.8
2018-11-01T06:57:26.446Z,7.8
2018-11-01T06:58:29.483Z,7.8
2018-11-01T06:59:31.699Z,7.8
2018-11-01T07:00:32.930Z,7.8
2018-11-01T07:01:34.126Z,7.8
2018-11-01T07:02:35.346Z,7.7
2018-11-01T07:03:36.908Z,7.7
2018-11-01T07:04:38.293Z,7.7
2018-11-01T07:05:40.176Z,7.7
2018-11-01T07:06:41.767Z,7.7
2018-11-01T07:07:43.170Z,7.7
2018-11-01T07:08:44.558Z,7.6
2018-11-01T07:09:45.948Z,7.6
2018-11-01T07:10:47.328Z,7.5
2018-11-01T07:11:48.571Z,7.5
2018-11-01T07:12:49.950Z,7.5
2018-11-01T07:13:51.005Z,7.4
2018-11-01T07:14:52.224Z,7.4
2018-11-01T07:15:53.630Z,7.4
2018-11-01T07:16:55.404Z,7.4
2018-11-01T07:17:57.028Z,7.3
2018-11-01T07:18:58.252Z,7.3
2018-11-01T07:19:59.788Z,7.3
2018-11-01T07:21:01.336Z,7.3
2018-11-01T07:22:02.888Z,7.3
2018-11-01T07:23:04.112Z,7.3
2018-11-01T07:24:05.510Z,7.3
2018-11-01T07:25:06.841Z,7.3
2018-11-01T07:26:09.126Z,7.3
2018-11-01T07:27:10.560Z,7.3
2018-11-01T07:28:11.945Z,7.3
2018-11-01T07:29:13.180Z,7.3
2018-11-01T07:30:14.730Z,7.4
2018-11-01T07:31:16.097Z,7.4
2018-11-01T07:32:17.306Z,7.4
2018-11-01T07:33:18.869Z,7.4
2018-11-01T07:34:20.266Z,7.4
2018-11-01T07:35:21.649Z,7.4
2018-11-01T07:36:22.693Z,7.4
2018-11-01T07:37:24.247Z,7.4
2018-11-01T07:38:25.308Z,7.4
2018-11-01T07:39:26.708Z,7.4
2018-11-01T07:40:28.120Z,7.4
2018-11-01T07:41:29.515Z,7.5
2018-11-01T07:42:30.918Z,7.5
2018-11-01T07:43:32.286Z,7.5
2018-11-01T07:44:33.658Z,7.6
2018-11-01T07:45:34.880Z,7.6
2018-11-01T07:46:36.445Z,7.7
2018-11-01T07:47:38.004Z,7.7
2018-11-01T07:48:39.900Z,7.7
2018-11-01T07:49:41.038Z,7.7
2018-11-01T07:50:42.603Z,7.6
2018-11-01T07:51:44.159Z,7.5
2018-11-01T07:52:46.432Z,7.4
2018-11-01T07:53:47.715Z,7.3
2018-11-01T07:54:49.254Z,7.2
2018-11-01T07:55:50.916Z,7.2
2018-11-01T07:56:52.309Z,7.2
2018-11-01T07:57:53.718Z,7.2
2018-11-01T07:58:55.273Z,7.2
2018-11-01T07:59:56.508Z,7.1
2018-11-01T08:00:57.901Z,7.2
2018-11-01T08:01:59.148Z,7.1
2018-11-01T08:03:00.530Z,7.2
2018-11-01T08:04:01.768Z,7.1
2018-11-01T08:05:02.821Z,7.2
2018-11-01T08:06:05.987Z,7.2
2018-11-01T08:07:07.572Z,7.2
2018-11-01T08:08:08.629Z,7.2
2018-11-01T08:09:10.030Z,7.2
2018-11-01T08:10:11.254Z,7.2
2018-11-01T08:11:12.478Z,7.2
2018-11-01T08:12:13.712Z,7.2
2018-11-01T08:13:15.115Z,7.2
2018-11-01T08:14:16.499Z,7.2
2018-11-01T08:15:17.890Z,7.2
2018-11-01T08:16:19.449Z,7.2
2018-11-01T08:17:20.827Z,7.3
2018-11-01T08:18:22.594Z,7.3
2018-11-01T08:19:24.153Z,7.4
2018-11-01T08:20:25.637Z,7.4
2018-11-01T08:21:27.299Z,7.5
2018-11-01T08:22:28.527Z,7.6
2018-11-01T08:23:29.920Z,7.7
2018-11-01T08:24:31.328Z,7.7
2018-11-01T08:25:32.883Z,7.8
2018-11-01T08:26:34.426Z,7.9
2018-11-01T08:27:35.660Z,7.9
2018-11-01T08:28:37.203Z,7.9
2018-11-01T08:29:38.618Z,7.9
2018-11-01T08:30:39.997Z,7.9
2018-11-01T08:31:41.120Z,7.9
2018-11-01T08:32:42.326Z,7.9
2018-11-01T08:33:43.555Z,7.9
2018-11-01T08:34:44.782Z,7.9
2018-11-01T08:35:45.998Z,7.9
2018-11-01T08:36:47.571Z,7.9
2018-11-01T08:37:48.959Z,7.9
2018-11-01T08:38:50.171Z,7.9
2018-11-01T08:39:51.729Z,7.9
2018-11-01T08:40:53.554Z,7.9
2018-11-01T08:41:54.929Z,7.9
2018-11-01T08:42:56.510Z,7.9
2018-11-01T08:43:57.675Z,7.9
2018-11-01T08:44:59.079Z,7.9
2018-11-01T08:46:00.323Z,7.8
2018-11-01T08:47:01.850Z,7.9
2018-11-01T08:48:02.966Z,7.9
2018-11-01T08:49:04.590Z,7.9
2018-11-01T08:50:06.811Z,7.9
2018-11-01T08:51:08.220Z,7.9
2018-11-01T08:52:09.609Z,7.9
2018-11-01T08:53:11.183Z,7.9
2018-11-01T08:54:12.730Z,7.9
2018-11-01T08:55:13.807Z,7.9
2018-11-01T08:56:15.193Z,7.9
2018-11-01T08:57:16.748Z,7.8
2018-11-01T08:58:18.056Z,7.8
2018-11-01T08:59:19.159Z,7.9
2018-11-01T09:00:20.551Z,7.9
2018-11-01T09:01:21.794Z,7.9
2018-11-01T09:02:23.188Z,7.9
2018-11-01T09:03:24.385Z,7.9
2018-11-01T09:04:25.807Z,7.9
2018-11-01T09:05:27.566Z,7.9
2018-11-01T09:06:29.155Z,7.9
2018-11-01T09:07:31.160Z,7.9
2018-11-01T09:08:32.730Z,7.9
2018-11-01T09:09:33.978Z,7.9
2018-11-01T09:10:37.185Z,7.9
2018-11-01T09:11:38.611Z,7.9
2018-11-01T09:12:40.491Z,7.9
2018-11-01T09:13:41.984Z,7.9
2018-11-01T09:14:43.813Z,7.9
2018-11-01T09:15:45.209Z,7.9
2018-11-01T09:16:46.582Z,7.9
2018-11-01T09:17:47.986Z,7.9
2018-11-01T09:18:49.609Z,7.9
2018-11-01T09:19:50.841Z,7.8
2018-11-01T09:20:51.921Z,7.8
2018-11-01T09:21:53.148Z,7.8
2018-11-01T09:22:54.549Z,7.8
2018-11-01T09:23:56.118Z,7.8
2018-11-01T09:24:57.519Z,7.2
2018-11-01T09:25:58.925Z,7.4
2018-11-01T09:27:01.667Z,7.6
2018-11-01T09:28:03.339Z,7.8
2018-11-01T09:29:04.888Z,7.9
2018-11-01T09:30:06.280Z,7.9
2018-11-01T09:31:07.658Z,7.9
2018-11-01T09:32:08.894Z,7.9
2018-11-01T09:33:10.457Z,7.8
2018-11-01T09:34:11.865Z,7.7
2018-11-01T09:35:13.439Z,7.6
2018-11-01T09:36:14.840Z,7.4
2018-11-01T09:37:16.241Z,7.3
2018-11-01T09:38:17.454Z,7.2
2018-11-01T09:39:18.861Z,7.1
2018-11-01T09:40:20.424Z,7.1
2018-11-01T09:41:22.000Z,7.2
2018-11-01T09:42:23.406Z,7.1
2018-11-01T09:43:24.482Z,7.2
2018-11-01T09:44:25.886Z,7.2
2018-11-01T09:45:27.802Z,7.2
2018-11-01T09:46:31.271Z,7.2
2018-11-01T09:47:35.242Z,7.2
2018-11-01T09:48:36.961Z,7.2
2018-11-01T09:49:38.532Z,7.3
2018-11-01T09:50:39.921Z,7.3
2018-11-01T09:51:41.489Z,7.4
2018-11-01T09:52:42.887Z,7.4
2018-11-01T09:53:44.265Z,7.5
2018-11-01T09:54:45.823Z,7.6
2018-11-01T09:55:48.294Z,7.7
2018-11-01T09:56:49.250Z,7.8
2018-11-01T09:57:50.819Z,7.9
2018-11-01T09:58:52.203Z,7.9
2018-11-01T09:59:53.763Z,7.9
2018-11-01T10:00:55.584Z,7.9
2018-11-01T10:01:56.763Z,7.9
2018-11-01T10:02:58.197Z,7.9
2018-11-01T10:03:59.755Z,7.9
2018-11-01T10:05:01.153Z,7.9
2018-11-01T10:06:03.313Z,7.9
2018-11-01T10:07:05.630Z,7.9
2018-11-01T10:08:07.231Z,7.9
2018-11-01T10:09:08.502Z,7.9
2018-11-01T10:10:09.921Z,7.9
2018-11-01T10:11:11.313Z,7.9
2018-11-01T10:12:12.870Z,7.9
2018-11-01T10:13:13.938Z,7.9
2018-11-01T10:14:15.178Z,7.8
2018-11-01T10:15:17.724Z,7.8
2018-11-01T10:16:20.232Z,7.8
2018-11-01T10:17:24.627Z,7.8
2018-11-01T10:18:29.659Z,7.8
2018-11-01T10:19:30.609Z,7.8
2018-11-01T10:20:31.673Z,7.8
2018-11-01T10:21:33.257Z,7.8
2018-11-01T10:22:35.514Z,7.7
2018-11-01T10:23:36.777Z,7.7
2018-11-01T10:24:38.169Z,7.7
2018-11-01T10:25:39.758Z,7.7
2018-11-01T10:26:40.984Z,7.7
2018-11-01T10:27:43.107Z,7.7
2018-11-01T10:28:44.758Z,7.7
2018-11-01T10:29:46.014Z,7.7
2018-11-01T10:30:47.430Z,7.7
2018-11-01T10:31:48.503Z,7.7
2018-11-01T10:32:50.455Z,7.7
2018-11-01T10:33:52.177Z,7.7
2018-11-01T10:34:53.242Z,7.7
2018-11-01T10:35:54.798Z,7.7
2018-11-01T10:36:56.239Z,7.7
2018-11-01T10:37:57.468Z,7.7
2018-11-01T10:38:58.891Z,7.7
2018-11-01T10:40:00.292Z,7.7
2018-11-01T10:41:02.147Z,7.7
2018-11-01T10:42:03.538Z,7.8
2018-11-01T10:43:04.941Z,7.8
2018-11-01T10:44:06.544Z,7.8
2018-11-01T10:45:07.958Z,7.9
2018-11-01T10:46:09.530Z,7.9
2018-11-01T10:47:10.931Z,7.9
2018-11-01T10:48:12.508Z,7.9
2018-11-01T10:49:13.908Z,7.9
2018-11-01T10:50:15.475Z,7.9
2018-11-01T10:51:16.735Z,7.2
2018-11-01T10:52:17.970Z,7.3
2018-11-01T10:53:19.360Z,7.3
2018-11-01T10:54:21.533Z,7.4
2018-11-01T10:55:23.193Z,7.4
2018-11-01T10:56:24.780Z,7.4
2018-11-01T10:57:26.029Z,7.3
2018-11-01T10:58:27.422Z,7.2
2018-11-01T10:59:28.830Z,7.2
2018-11-01T11:00:30.877Z,7.2
2018-11-01T11:01:32.505Z,7.2
2018-11-01T11:02:33.749Z,7.2
2018-11-01T11:03:35.157Z,7.2
2018-11-01T11:04:36.725Z,7.2
2018-11-01T11:05:38.125Z,7.2
2018-11-01T11:06:40.485Z,7.2
2018-11-01T11:07:41.817Z,7.2
2018-11-01T11:08:43.399Z,7.2
2018-11-01T11:09:44.980Z,7.1
2018-11-01T11:10:46.388Z,7.2
2018-11-01T11:11:47.972Z,7.1
2018-11-01T11:12:49.531Z,7.1
2018-11-01T11:13:50.912Z,7.1
2018-11-01T11:14:52.378Z,7.1
2018-11-01T11:15:53.836Z,7.1
2018-11-01T11:16:55.076Z,7.2
2018-11-01T11:17:56.310Z,7.2
2018-11-01T11:18:57.544Z,7.2
2018-11-01T11:19:59.533Z,7.2
2018-11-01T11:21:04.842Z,7.2
2018-11-01T11:22:06.764Z,7.2
2018-11-01T11:23:08.191Z,7.2
2018-11-01T11:24:09.790Z,7.2
2018-11-01T11:25:11.392Z,7.2
2018-11-01T11:26:12.995Z,7.2
2018-11-01T11:27:14.388Z,7.2
2018-11-01T11:28:15.891Z,7.2
2018-11-01T11:29:17.005Z,7.2
2018-11-01T11:30:18.917Z,7.2
2018-11-01T11:31:20.247Z,7.2
2018-11-01T11:32:21.485Z,7.2
2018-11-01T11:33:23.077Z,7.2
2018-11-01T11:34:24.478Z,7.3
2018-11-01T11:35:25.757Z,7.3
2018-11-01T11:36:27.236Z,7.4
2018-11-01T11:37:28.788Z,7.4
2018-11-01T11:38:30.196Z,7.5
2018-11-01T11:39:32.259Z,7.6
2018-11-01T11:40:33.687Z,7.7
2018-11-01T11:41:34.928Z,7.8
2018-11-01T11:42:36.344Z,7.9
2018-11-01T11:43:37.600Z,7.9
2018-11-01T11:44:38.840Z,7.9
2018-11-01T11:45:40.069Z,7.9
2018-11-01T11:46:41.616Z,7.9
2018-11-01T11:47:43.183Z,7.9
2018-11-01T11:48:44.753Z,7.9
2018-11-01T11:50:01.018Z,7.9
2018-11-01T11:51:02.083Z,7.9
2018-11-01T11:52:03.641Z,7.9
2018-11-01T11:53:05.212Z,7.9
2018-11-01T11:54:06.782Z,7.9
2018-11-01T11:55:08.324Z,7.9
2018-11-01T11:56:09.543Z,7.2
2018-11-01T11:57:11.776Z,7.3
2018-11-01T11:58:13.245Z,7.4
2018-11-01T11:59:14.480Z,7.5
2018-11-01T12:00:15.907Z,7.5
2018-11-01T12:01:17.478Z,7.5
2018-11-01T12:02:19.297Z,7.6
2018-11-01T12:03:20.770Z,7.6
2018-11-01T12:04:22.180Z,7.6
2018-11-01T12:05:24.058Z,7.7
2018-11-01T12:06:27.277Z,7.7
2018-11-01T12:07:28.846Z,7.7
2018-11-01T12:08:30.417Z,7.8
2018-11-01T12:09:31.683Z,7.8
2018-11-01T12:10:33.091Z,7.8
2018-11-01T12:11:34.304Z,7.8
2018-11-01T12:12:35.568Z,7.9
2018-11-01T12:13:37.130Z,7.9
2018-11-01T12:14:38.552Z,7.9
2018-11-01T12:15:39.626Z,7.9
2018-11-01T12:16:41.188Z,7.8
2018-11-01T12:17:42.589Z,7.8
2018-11-01T12:18:43.970Z,7.8
2018-11-01T12:19:45.220Z,7.8
2018-11-01T12:20:46.805Z,7.8
2018-11-01T12:21:48.379Z,7.8
2018-11-01T12:22:49.965Z,7.8
2018-11-01T12:23:51.354Z,7.9
2018-11-01T12:24:52.740Z,7.8
2018-11-01T12:25:53.802Z,7.9
2018-11-01T12:26:55.198Z,7.9
2018-11-01T12:27:56.622Z,7.9
2018-11-01T12:28:59.108Z,7.9
2018-11-01T12:29:59.939Z,7.9
2018-11-01T12:31:01.041Z,7.9
2018-11-01T12:32:02.117Z,7.9
2018-11-01T12:33:03.551Z,7.9
2018-11-01T12:34:04.969Z,7.9
2018-11-01T12:35:06.843Z,7.6
2018-11-01T12:36:08.848Z,7.6
2018-11-01T12:37:10.110Z,7.5
2018-11-01T12:38:11.499Z,7.5
2018-11-01T12:39:13.089Z,7.3
2018-11-01T12:40:14.503Z,7.2
2018-11-01T12:41:15.781Z,7.2
2018-11-01T12:42:16.879Z,7.2
2018-11-01T12:43:18.377Z,7.2
2018-11-01T12:44:19.824Z,7.1
2018-11-01T12:45:21.063Z,7.2
2018-11-01T12:46:22.666Z,7.1
2018-11-01T12:47:23.913Z,7.2
2018-11-01T12:48:25.002Z,7.2
2018-11-01T12:49:26.417Z,7.1
2018-11-01T12:50:28.540Z,7.1
2018-11-01T12:51:29.607Z,7.2
2018-11-01T12:52:31.181Z,7.2
2018-11-01T12:53:32.569Z,7.1
2018-11-01T12:54:34.036Z,7.2
2018-11-01T12:55:35.498Z,7.1
2018-11-01T12:56:36.778Z,7.2
2018-11-01T12:57:38.058Z,7.2
2018-11-01T12:58:39.634Z,7.2
2018-11-01T12:59:40.861Z,7.2
2018-11-01T13:00:42.325Z,7.2
2018-11-01T13:01:43.726Z,7.2
2018-11-01T13:02:45.549Z,7.2
2018-11-01T13:03:46.610Z,7.2
2018-11-01T13:04:47.679Z,7.2
2018-11-01T13:05:49.274Z,7.2
2018-11-01T13:06:50.501Z,7.3
2018-11-01T13:07:52.063Z,7.3
2018-11-01T13:08:53.467Z,7.4
2018-11-01T13:09:54.882Z,7.4
2018-11-01T13:10:56.277Z,7.5
2018-11-01T13:11:57.514Z,7.6
2018-11-01T13:12:59.084Z,7.7
2018-11-01T13:14:00.172Z,7.7
2018-11-01T13:15:01.403Z,7.8
2018-11-01T13:16:02.649Z,7.8
2018-11-01T13:17:03.878Z,7.9
2018-11-01T13:18:06.468Z,7.9
2018-11-01T13:19:07.911Z,7.9
2018-11-01T13:20:09.313Z,7.9
2018-11-01T13:21:10.903Z,7.9
2018-11-01T13:22:12.304Z,7.9
2018-11-01T13:23:13.694Z,7.9
2018-11-01T13:24:14.956Z,7.9
2018-11-01T13:25:16.186Z,7.9
2018-11-01T13:26:17.753Z,7.9
2018-11-01T13:27:19.159Z,7.9
2018-11-01T13:28:20.533Z,7.9
2018-11-01T13:29:22.190Z,7.9
2018-11-01T13:30:23.609Z,7.9
2018-11-01T13:31:25.153Z,7.9
2018-11-01T13:32:26.552Z,7.9
2018-11-01T13:33:28.119Z,7.9
2018-11-01T13:34:29.734Z,7.9
2018-11-01T13:35:31.796Z,7.9
2018-11-01T13:36:33.335Z,7.9
2018-11-01T13:37:34.906Z,7.9
2018-11-01T13:38:36.483Z,7.9
2018-11-01T13:39:38.679Z,7.9
2018-11-01T13:40:43.245Z,7.9
2018-11-01T13:41:46.076Z,7.8
2018-11-01T13:42:47.708Z,7.8
2018-11-01T13:43:48.932Z,7.8
2018-11-01T13:44:50.498Z,7.9
2018-11-01T13:45:52.077Z,7.9
2018-11-01T13:46:53.507Z,7.9
2018-11-01T13:47:55.915Z,7.8
2018-11-01T13:48:57.359Z,7.8
2018-11-01T13:49:58.599Z,7.8
2018-11-01T13:50:59.823Z,7.8
2018-11-01T13:52:01.585Z,7.8
2018-11-01T13:53:03.162Z,7.9
2018-11-01T13:54:04.573Z,7.9
2018-11-01T13:55:05.799Z,7.9
2018-11-01T13:56:07.200Z,7.8
2018-11-01T13:57:08.102Z,7.8
2018-11-01T13:58:09.158Z,7.8
2018-11-01T13:59:10.379Z,7.8
2018-11-01T14:00:11.634Z,7.8
2018-11-01T14:01:13.029Z,7.8
2018-11-01T14:02:14.457Z,7.8
2018-11-01T14:03:15.701Z,7.8
2018-11-01T14:04:17.266Z,7.8
2018-11-01T14:05:18.830Z,7.8
2018-11-01T14:06:21.198Z,7.8
2018-11-01T14:07:22.527Z,7.9